Nearby METAR Reports

 

KMFD - Mansfield, Ohio, USA
Distance from station: E 12mi, 20km
Updated: Fri, 10-Jul-2020 6:52am EDT
Mist, Clear
Mist, Clear
 Wind from S
Wind: S 7 mph , 11 km/h
Temperature: 75°F , 24°C
Dew Point: 72°F , 22°C
Humidity: 89%
Barometer: 29.89 inHg , 1012.2 hPa
Summary: Mist
Clouds: Clear
Visibility: 6 miles , 10 km
2020/07/10 10:52 KMFD 101052Z AUTO 18006KT 6SM BR CLR 24/22 A2989 RMK AO2 SLP108 T02390217
KMNN - Marion, Ohio, USA
Distance from station: SW 20mi, 33km
Updated: Fri, 10-Jul-2020 6:53am EDT
Mist, Clear
Mist, Clear
 Wind from S
Wind: S 6 mph , 9 km/h
Temperature: 73°F , 23°C
Dew Point: 70°F , 21°C
Humidity: 89%
Barometer: 29.87 inHg , 1011.5 hPa
Summary: Mist
Clouds: Clear
Visibility: 3 miles , 5 km
2020/07/10 10:53 KMNN 101053Z AUTO 19005KT 3SM BR CLR 23/21 A2987 RMK AO2 SLP108 T02280211 $
 
K4I3 - Mt Vernon/Knox, Ohio, USA
Distance from station: SSE 33mi, 54km
Updated: Fri, 10-Jul-2020 7:36am EDT
Mist, Overcast
Mist, Overcast
 Wind from calm
Wind: Calm
Temperature: 72°F , 22°C
Dew Point: 70°F , 21°C
Humidity: 94%
Barometer: 29.91 inHg , 1012.9 hPa
Summary: Mist
Clouds: Overcast
Visibility: 1 3/4 miles , 2.8 km
Cloud details: Overcast 700 ft
2020/07/10 11:36 K4I3 101136Z AUTO 00000KT 1 3/4SM BR VV007 22/21 A2991 RMK AO2
KDLZ - Delaware, Ohio, USA
Distance from station: SSW 40mi, 64km
Updated: Fri, 10-Jul-2020 7:35am EDT
Mist, Clear
Mist, Clear
 Wind from SSE
Wind: SSE 3 mph , 6 km/h
Temperature: 73°F , 23°C
Dew Point: 72°F , 22°C
Humidity: 94%
Barometer: 29.88 inHg , 1011.9 hPa
Summary: Mist
Clouds: Clear
Visibility: 5 miles , 8 km
2020/07/10 11:35 KDLZ 101135Z AUTO 15003KT 5SM BR CLR 23/22 A2988 RMK AO2
 
KBJJ - Wooster, Ohio, USA
Distance from station: E 46mi, 73km
Updated: Fri, 10-Jul-2020 6:56am EDT
Mist, Clear
Mist, Clear
 Wind from calm
Wind: Calm
Temperature: 72°F , 22°C
Dew Point: 70°F , 21°C
Humidity: 94%
Barometer: 29.90 inHg , 1012.5 hPa
Summary: Mist
Clouds: Clear
Visibility: 5 miles , 8 km
2020/07/10 10:56 KBJJ 101056Z AUTO 00000KT 5SM BR CLR 22/21 A2990 RMK AO2 SLP113 T02220211
KLPR - Lorain/Elyria, Ohio, USA
Distance from station: NE 49mi, 79km
Updated: Fri, 10-Jul-2020 6:53am EDT
Clear
Clear
 Wind from S
Wind: S 9 mph , 15 km/h
Temperature: 75°F , 24°C
Dew Point: 66°F , 19°C
Humidity: 74%
Barometer: 29.86 inHg , 1011.2 hPa
Clouds: Clear
Visibility: 7 miles , 11 km
2020/07/10 10:53 KLPR 101053Z AUTO 18008KT 7SM CLR 24/19 A2986 RMK AO2 SLP102 T02440189